createdAt,value
2018-07-01T00:01:52.897Z,16.80
2018-07-01T00:04:26.705Z,16.80
2018-07-01T00:07:00.435Z,16.70
2018-07-01T00:09:34.393Z,16.70
2018-07-01T00:12:08.418Z,16.60
2018-07-01T00:14:42.301Z,16.70
2018-07-01T00:17:16.142Z,16.60
2018-07-01T00:19:49.901Z,16.60
2018-07-01T00:22:23.797Z,16.60
2018-07-01T00:24:57.751Z,16.50
2018-07-01T00:27:31.506Z,16.50
2018-07-01T00:30:06.116Z,16.50
2018-07-01T00:32:39.875Z,16.40
2018-07-01T00:35:13.804Z,16.40
2018-07-01T00:37:47.620Z,16.30
2018-07-01T00:40:21.498Z,16.20
2018-07-01T00:42:55.330Z,16.20
2018-07-01T00:45:29.071Z,16.10
2018-07-01T00:48:02.826Z,16.00
2018-07-01T00:50:36.558Z,16.00
2018-07-01T00:53:10.375Z,15.90
2018-07-01T00:55:44.112Z,15.90
2018-07-01T00:58:17.841Z,15.90
2018-07-01T01:00:51.564Z,15.80
2018-07-01T01:03:25.432Z,15.80
2018-07-01T01:05:59.158Z,15.70
2018-07-01T01:08:32.887Z,15.60
2018-07-01T01:11:06.634Z,15.60
2018-07-01T01:13:40.468Z,15.50
2018-07-01T01:16:14.226Z,15.50
2018-07-01T01:18:47.973Z,15.50
2018-07-01T01:21:21.763Z,15.40
2018-07-01T01:23:55.510Z,15.40
2018-07-01T01:26:29.273Z,15.30
2018-07-01T01:29:03.062Z,15.30
2018-07-01T01:31:36.803Z,15.20
2018-07-01T01:34:10.680Z,15.20
2018-07-01T01:36:45.290Z,15.10
2018-07-01T01:39:22.524Z,15.10
2018-07-01T01:42:02.993Z,15.10
2018-07-01T01:44:56.315Z,15.00
2018-07-01T01:47:39.825Z,15.00
2018-07-01T01:50:22.335Z,14.90
2018-07-01T01:53:03.677Z,14.90
2018-07-01T01:55:57.377Z,14.90
2018-07-01T01:58:42.114Z,14.90
2018-07-01T02:01:33.144Z,14.90
2018-07-01T02:05:15.532Z,14.90
2018-07-01T02:07:55.135Z,14.80
2018-07-01T02:10:29.501Z,14.70
2018-07-01T02:13:03.429Z,14.70
2018-07-01T02:15:42.774Z,14.60
2018-07-01T02:18:16.629Z,14.60
2018-07-01T02:20:50.571Z,14.60
2018-07-01T02:23:28.352Z,14.50
2018-07-01T02:26:06.824Z,14.50
2018-07-01T02:28:40.685Z,14.40
2018-07-01T02:31:14.593Z,14.30
2018-07-01T02:33:48.348Z,14.30
2018-07-01T02:36:22.187Z,14.30
2018-07-01T02:38:55.930Z,14.30
2018-07-01T02:41:29.746Z,14.20
2018-07-01T02:44:03.513Z,14.20
2018-07-01T02:46:37.372Z,14.20
2018-07-01T02:49:11.096Z,14.20
2018-07-01T02:51:44.981Z,14.10
2018-07-01T02:54:18.634Z,14.10
2018-07-01T02:56:52.515Z,14.10
2018-07-01T02:59:26.253Z,14.00
2018-07-01T03:02:00.051Z,14.00
2018-07-01T03:04:33.799Z,14.00
2018-07-01T03:07:07.661Z,14.00
2018-07-01T03:09:41.494Z,14.00
2018-07-01T03:12:15.374Z,14.00
2018-07-01T03:14:49.165Z,14.00
2018-07-01T03:17:23.044Z,14.00
2018-07-01T03:19:56.933Z,14.00
2018-07-01T03:22:30.797Z,14.00
2018-07-01T03:25:04.600Z,14.00
2018-07-01T03:27:38.389Z,14.00
2018-07-01T03:30:12.226Z,13.90
2018-07-01T03:32:46.033Z,14.00
2018-07-01T03:35:19.865Z,13.90
2018-07-01T03:37:53.625Z,13.90
2018-07-01T03:40:27.319Z,13.90
2018-07-01T03:43:01.451Z,13.90
2018-07-01T03:45:35.621Z,13.90
2018-07-01T03:48:09.898Z,14.00
2018-07-01T03:50:43.725Z,13.90
2018-07-01T03:53:17.521Z,14.00
2018-07-01T03:55:51.280Z,14.00
2018-07-01T03:58:25.015Z,14.00
2018-07-01T04:00:58.865Z,14.00
2018-07-01T04:03:32.725Z,14.10
2018-07-01T04:06:06.547Z,14.10
2018-07-01T04:08:40.392Z,14.10
2018-07-01T04:11:14.185Z,14.20
2018-07-01T04:13:48.000Z,14.20
2018-07-01T04:16:21.753Z,14.20
2018-07-01T04:18:55.489Z,14.30
2018-07-01T04:21:29.289Z,14.30
2018-07-01T04:24:03.129Z,14.40
2018-07-01T04:26:36.913Z,14.40
2018-07-01T04:29:10.748Z,14.40
2018-07-01T04:31:44.561Z,14.50
2018-07-01T04:34:18.392Z,14.50
2018-07-01T04:36:52.208Z,14.50
2018-07-01T04:39:26.482Z,14.60
2018-07-01T04:42:00.273Z,14.60
2018-07-01T04:44:34.128Z,14.70
2018-07-01T04:47:07.860Z,14.70
2018-07-01T04:49:41.758Z,14.70
2018-07-01T04:52:15.561Z,14.80
2018-07-01T04:54:49.403Z,14.90
2018-07-01T04:57:23.150Z,14.90
2018-07-01T04:59:56.922Z,15.00
2018-07-01T05:02:30.772Z,15.00
2018-07-01T05:05:04.650Z,15.10
2018-07-01T05:07:38.449Z,15.10
2018-07-01T05:12:45.239Z,15.30
2018-07-01T05:15:19.061Z,15.30
2018-07-01T05:17:52.790Z,15.40
2018-07-01T05:20:26.592Z,15.40
2018-07-01T05:23:00.281Z,15.50
2018-07-01T05:28:07.120Z,15.50
2018-07-01T05:30:40.900Z,15.50
2018-07-01T05:33:14.717Z,15.50
2018-07-01T05:35:48.591Z,15.50
2018-07-01T05:38:22.354Z,15.50
2018-07-01T05:40:56.145Z,15.60
2018-07-01T05:43:29.895Z,15.70
2018-07-01T05:46:03.686Z,15.80
2018-07-01T05:48:37.513Z,16.00
2018-07-01T05:51:11.281Z,16.00
2018-07-01T05:53:45.185Z,16.10
2018-07-01T05:56:18.962Z,16.20
2018-07-01T05:58:52.721Z,16.30
2018-07-01T06:01:26.610Z,16.30
2018-07-01T06:04:00.410Z,16.40
2018-07-01T06:06:34.256Z,16.40
2018-07-01T06:09:12.353Z,16.50
2018-07-01T06:11:46.231Z,16.60
2018-07-01T06:14:20.148Z,16.60
2018-07-01T06:16:53.926Z,16.60
2018-07-01T06:19:27.923Z,16.70
2018-07-01T06:22:01.646Z,16.70
2018-07-01T06:24:35.523Z,16.80
2018-07-01T06:27:09.450Z,16.80
2018-07-01T06:29:43.264Z,16.90
2018-07-01T06:32:17.024Z,17.00
2018-07-01T06:34:50.902Z,17.00
2018-07-01T06:37:24.696Z,17.00
2018-07-01T06:39:58.461Z,17.10
2018-07-01T06:42:32.244Z,17.10
2018-07-01T06:45:06.121Z,17.20
2018-07-01T06:47:39.905Z,17.30
2018-07-01T06:50:13.716Z,17.40
2018-07-01T06:52:47.508Z,17.50
2018-07-01T06:55:21.272Z,17.60
2018-07-01T06:57:54.964Z,17.60
2018-07-01T07:00:28.790Z,17.60
2018-07-01T07:03:02.586Z,17.70
2018-07-01T07:05:36.350Z,17.70
2018-07-01T07:08:10.163Z,17.80
2018-07-01T07:10:43.895Z,17.90
2018-07-01T07:13:17.621Z,18.00
2018-07-01T07:15:51.411Z,18.00
2018-07-01T07:18:25.237Z,18.20
2018-07-01T07:20:59.168Z,18.20
2018-07-01T07:23:33.287Z,18.30
2018-07-01T07:26:07.135Z,18.30
2018-07-01T07:28:40.995Z,18.40
2018-07-01T07:31:14.995Z,18.50
2018-07-01T07:33:48.995Z,18.60
2018-07-01T07:36:22.740Z,18.70
2018-07-01T07:38:56.445Z,18.80
2018-07-01T07:41:30.160Z,18.90
2018-07-01T07:44:03.927Z,19.00
2018-07-01T07:46:37.876Z,19.10
2018-07-01T07:49:11.610Z,19.20
2018-07-01T07:51:45.556Z,19.30
2018-07-01T07:54:19.334Z,19.50
2018-07-01T07:56:53.162Z,19.50
2018-07-01T07:59:27.012Z,19.60
2018-07-01T08:02:00.858Z,19.70
2018-07-01T08:04:34.600Z,19.80
2018-07-01T08:07:08.390Z,19.90
2018-07-01T08:09:42.171Z,20.00
2018-07-01T08:12:15.976Z,20.10
2018-07-01T08:14:49.645Z,20.20
2018-07-01T08:17:23.333Z,20.20
2018-07-01T08:19:57.016Z,20.30
2018-07-01T08:22:30.828Z,20.30
2018-07-01T08:25:04.594Z,20.40
2018-07-01T08:27:38.342Z,20.50
2018-07-01T08:30:12.194Z,20.60
2018-07-01T08:32:46.225Z,20.60
2018-07-01T08:35:19.978Z,20.70
2018-07-01T08:37:53.726Z,20.70
2018-07-01T08:40:27.440Z,20.80
2018-07-01T08:43:01.236Z,20.90
2018-07-01T08:45:35.100Z,20.90
2018-07-01T08:48:08.936Z,21.00
2018-07-01T08:50:42.680Z,21.10
2018-07-01T08:53:16.431Z,21.20
2018-07-01T08:55:50.243Z,21.30
2018-07-01T08:58:24.042Z,21.40
2018-07-01T09:00:57.788Z,21.60
2018-07-01T09:03:31.601Z,21.60
2018-07-01T09:06:05.315Z,21.60
2018-07-01T09:08:39.144Z,21.70
2018-07-01T09:11:13.162Z,21.80
2018-07-01T09:13:47.088Z,21.90
2018-07-01T09:16:20.772Z,21.90
2018-07-01T09:18:54.537Z,22.00
2018-07-01T09:21:28.250Z,22.10
2018-07-01T09:24:02.052Z,22.20
2018-07-01T09:26:35.763Z,22.30
2018-07-01T09:29:09.587Z,22.40
2018-07-01T09:31:43.339Z,22.40
2018-07-01T09:34:17.928Z,22.50
2018-07-01T09:36:52.331Z,22.60
2018-07-01T09:41:59.644Z,22.70
2018-07-01T09:44:33.472Z,22.80
2018-07-01T09:47:07.229Z,22.80
2018-07-01T09:49:41.112Z,22.90
2018-07-01T09:52:14.947Z,22.90
2018-07-01T09:54:48.808Z,23.00
2018-07-01T09:57:22.630Z,23.20
2018-07-01T09:59:56.496Z,23.30
2018-07-01T10:02:30.389Z,23.40
2018-07-01T10:05:04.169Z,23.50
2018-07-01T10:07:37.990Z,23.60
2018-07-01T10:10:11.785Z,23.80
2018-07-01T10:12:45.549Z,23.80
2018-07-01T10:15:19.342Z,23.90
2018-07-01T10:17:53.109Z,24.00
2018-07-01T10:20:26.945Z,24.00
2018-07-01T10:23:00.732Z,24.10
2018-07-01T10:25:34.690Z,24.20
2018-07-01T10:28:08.562Z,24.20
2018-07-01T10:30:42.463Z,24.30
2018-07-01T10:33:16.401Z,24.40
2018-07-01T10:35:50.762Z,24.60
2018-07-01T10:38:25.696Z,24.70
2018-07-01T10:41:01.200Z,24.80
2018-07-01T10:43:36.727Z,24.90
2018-07-01T10:46:12.197Z,25.00
2018-07-01T10:48:47.677Z,25.00
2018-07-01T10:51:24.142Z,25.00
2018-07-01T10:53:59.018Z,25.00
2018-07-01T10:56:36.234Z,25.00
2018-07-01T10:59:11.565Z,25.10
2018-07-01T11:04:20.050Z,25.10
2018-07-01T11:06:55.341Z,25.10
2018-07-01T11:09:29.315Z,25.10
2018-07-01T11:12:03.331Z,25.30
2018-07-01T11:14:37.269Z,25.30
2018-07-01T11:17:11.899Z,25.30
2018-07-01T11:19:46.776Z,25.30
2018-07-01T11:22:20.695Z,25.30
2018-07-01T11:24:55.125Z,25.50
2018-07-01T11:27:28.948Z,25.60
2018-07-01T11:30:03.319Z,25.80
2018-07-01T11:32:37.531Z,25.90
2018-07-01T11:35:11.739Z,26.00
2018-07-01T11:37:46.313Z,26.10
2018-07-01T11:40:22.875Z,26.30
2018-07-01T11:42:57.145Z,26.30
2018-07-01T11:45:32.771Z,26.30
2018-07-01T11:48:08.286Z,26.30
2018-07-01T11:50:43.176Z,26.40
2018-07-01T11:53:20.295Z,26.60
2018-07-01T11:55:55.643Z,26.60
2018-07-01T11:58:30.252Z,26.80
2018-07-01T12:01:06.779Z,26.80
2018-07-01T12:03:42.603Z,26.70
2018-07-01T12:06:19.209Z,26.60
2018-07-01T12:08:54.746Z,26.40
2018-07-01T12:11:28.918Z,26.30
2018-07-01T12:14:03.958Z,26.40
2018-07-01T12:16:39.085Z,26.50
2018-07-01T12:19:16.373Z,26.70
2018-07-01T12:21:50.794Z,26.80
2018-07-01T12:24:26.895Z,27.00
2018-07-01T12:27:01.922Z,27.20
2018-07-01T12:29:38.586Z,27.40
2018-07-01T12:32:14.351Z,27.50
2018-07-01T12:34:50.264Z,27.50
2018-07-01T12:37:24.059Z,27.50
2018-07-01T12:39:59.461Z,27.50
2018-07-01T12:42:34.763Z,27.40
2018-07-01T12:45:12.899Z,27.50
2018-07-01T12:47:49.068Z,27.60
2018-07-01T12:50:25.663Z,27.80
2018-07-01T12:53:01.858Z,27.80
2018-07-01T12:55:37.788Z,27.50
2018-07-01T12:58:14.763Z,27.20
2018-07-01T13:00:52.191Z,27.00
2018-07-01T13:03:27.459Z,27.10
2018-07-01T13:06:01.463Z,27.20
2018-07-01T13:08:35.277Z,27.40
2018-07-01T13:11:09.497Z,27.70
2018-07-01T13:13:43.344Z,27.80
2018-07-01T13:16:17.213Z,27.90
2018-07-01T13:18:51.486Z,27.80
2018-07-01T13:21:25.365Z,27.50
2018-07-01T13:24:00.748Z,27.50
2018-07-01T13:26:34.612Z,27.80
2018-07-01T13:29:09.300Z,28.00
2018-07-01T13:31:43.248Z,28.00
2018-07-01T13:34:18.036Z,27.80
2018-07-01T13:36:52.367Z,27.90
2018-07-01T13:39:27.125Z,28.10
2018-07-01T13:42:03.012Z,28.40
2018-07-01T13:44:36.913Z,28.60
2018-07-01T13:47:11.512Z,28.90
2018-07-01T13:49:45.493Z,29.20
2018-07-01T13:52:19.365Z,29.40
2018-07-01T13:54:53.098Z,29.60
2018-07-01T13:57:27.130Z,29.50
2018-07-01T14:00:01.002Z,29.30
2018-07-01T14:02:35.144Z,29.30
2018-07-01T14:05:08.992Z,29.50
2018-07-01T14:07:42.795Z,29.70
2018-07-01T14:10:16.678Z,29.90
2018-07-01T14:12:50.470Z,30.10
2018-07-01T14:15:24.238Z,30.30
2018-07-01T14:17:58.243Z,30.50
2018-07-01T14:20:31.998Z,30.70
2018-07-01T14:23:05.831Z,30.80
2018-07-01T14:25:39.653Z,31.00
2018-07-01T14:28:13.470Z,31.10
2018-07-01T14:30:47.179Z,31.10
2018-07-01T14:33:21.060Z,31.10
2018-07-01T14:35:54.781Z,31.10
2018-07-01T14:38:28.545Z,31.30
2018-07-01T14:41:02.264Z,31.40
2018-07-01T14:43:36.171Z,31.50
2018-07-01T14:46:09.940Z,31.60
2018-07-01T14:48:43.715Z,31.70
2018-07-01T14:51:17.384Z,31.80
2018-07-01T14:53:51.125Z,31.90
2018-07-01T14:56:24.891Z,32.00
2018-07-01T14:59:00.089Z,32.10
2018-07-01T15:01:33.905Z,32.20
2018-07-01T15:04:07.839Z,32.20
2018-07-01T15:09:16.416Z,32.10
2018-07-01T15:11:50.334Z,32.10
2018-07-01T15:14:24.108Z,32.00
2018-07-01T15:16:57.798Z,32.00
2018-07-01T15:19:31.506Z,31.90
2018-07-01T15:22:06.042Z,32.00
2018-07-01T15:24:39.891Z,32.00
2018-07-01T15:27:14.710Z,32.00
2018-07-01T15:29:48.510Z,32.00
2018-07-01T15:32:23.158Z,32.00
2018-07-01T15:34:56.974Z,32.00
2018-07-01T15:37:30.801Z,32.00
2018-07-01T15:40:04.673Z,31.90
2018-07-01T15:42:38.782Z,31.90
2018-07-01T15:45:12.593Z,31.80
2018-07-01T15:47:46.500Z,31.70
2018-07-01T15:50:20.328Z,31.60
2018-07-01T15:52:54.998Z,31.60
2018-07-01T15:55:30.353Z,31.60
2018-07-01T15:58:06.683Z,31.60
2018-07-01T16:00:42.712Z,31.50
2018-07-01T16:03:19.296Z,31.40
2018-07-01T16:05:55.226Z,31.30
2018-07-01T16:08:30.433Z,31.20
2018-07-01T16:11:07.161Z,31.10
2018-07-01T16:13:43.530Z,30.90
2018-07-01T16:16:18.588Z,30.70
2018-07-01T16:18:52.765Z,30.70
2018-07-01T16:21:29.518Z,30.60
2018-07-01T16:24:03.373Z,30.50
2018-07-01T16:26:42.801Z,30.50
2018-07-01T16:31:52.533Z,30.50
2018-07-01T16:34:26.365Z,30.50
2018-07-01T16:37:02.175Z,30.60
2018-07-01T16:39:37.235Z,30.60
2018-07-01T16:42:12.825Z,30.60
2018-07-01T16:44:49.994Z,30.70
2018-07-01T16:47:23.742Z,30.70
2018-07-01T16:49:57.458Z,30.70
2018-07-01T16:52:31.275Z,30.60
2018-07-01T16:55:04.977Z,30.60
2018-07-01T16:57:38.787Z,30.50
2018-07-01T17:00:12.724Z,30.40
2018-07-01T17:02:46.914Z,30.30
2018-07-01T17:05:20.723Z,30.10
2018-07-01T17:10:27.796Z,29.70
2018-07-01T17:13:01.638Z,29.50
2018-07-01T17:15:35.567Z,29.20
2018-07-01T17:18:09.306Z,28.90
2018-07-01T17:20:43.137Z,28.70
2018-07-01T17:23:16.934Z,28.50
2018-07-01T17:25:54.833Z,28.20
2018-07-01T17:28:28.685Z,28.00
2018-07-01T17:31:07.161Z,27.80
2018-07-01T17:33:40.947Z,27.60
2018-07-01T17:36:14.754Z,27.40
2018-07-01T17:38:48.628Z,27.30
2018-07-01T17:41:22.478Z,27.20
2018-07-01T17:43:56.448Z,27.00
2018-07-01T17:46:30.216Z,27.00
2018-07-01T17:49:04.093Z,26.70
2018-07-01T17:51:37.821Z,26.50
2018-07-01T17:54:11.804Z,26.40
2018-07-01T17:56:45.486Z,26.30
2018-07-01T17:59:19.335Z,26.20
2018-07-01T18:01:53.051Z,26.10
2018-07-01T18:04:26.936Z,26.00
2018-07-01T18:07:00.667Z,25.80
2018-07-01T18:09:34.609Z,25.70
2018-07-01T18:12:08.530Z,25.60
2018-07-01T18:14:42.344Z,25.50
2018-07-01T18:17:16.160Z,25.40
2018-07-01T18:19:50.024Z,25.30
2018-07-01T18:22:52.491Z,25.10
2018-07-01T18:25:04.501Z,25.00
2018-07-01T18:27:36.095Z,24.90
2018-07-01T18:30:05.574Z,24.80
2018-07-01T18:32:39.303Z,24.70
2018-07-01T18:35:13.113Z,24.60
2018-07-01T18:37:46.893Z,24.50
2018-07-01T18:40:20.958Z,24.40
2018-07-01T18:42:54.764Z,24.40
2018-07-01T18:45:28.562Z,24.30
2018-07-01T18:48:02.369Z,24.20
2018-07-01T18:50:36.221Z,24.10
2018-07-01T18:53:10.075Z,24.00
2018-07-01T18:55:43.895Z,23.90
2018-07-01T18:58:18.542Z,23.80
2018-07-01T19:00:52.401Z,23.70
2018-07-01T19:03:26.110Z,23.60
2018-07-01T19:05:59.936Z,23.60
2018-07-01T19:08:33.632Z,23.50
2018-07-01T19:11:07.481Z,23.40
2018-07-01T19:13:41.290Z,23.30
2018-07-01T19:16:15.127Z,23.20
2018-07-01T19:18:48.916Z,23.10
2018-07-01T19:21:22.721Z,23.10
2018-07-01T19:23:56.514Z,23.00
2018-07-01T19:26:30.193Z,22.90
2018-07-01T19:29:03.936Z,22.80
2018-07-01T19:31:38.702Z,22.80
2018-07-01T19:34:24.829Z,22.70
2018-07-01T19:36:59.344Z,22.60
2018-07-01T19:39:33.102Z,22.50
2018-07-01T19:42:06.947Z,22.40
2018-07-01T19:44:41.088Z,22.30
2018-07-01T19:47:15.049Z,22.20
2018-07-01T19:52:21.894Z,22.10
2018-07-01T19:54:55.661Z,22.00
2018-07-01T19:57:29.995Z,21.90
2018-07-01T20:00:03.804Z,21.80
2018-07-01T20:02:37.832Z,21.70
2018-07-01T20:05:13.382Z,21.60
2018-07-01T20:07:47.502Z,21.60
2018-07-01T20:10:22.404Z,21.50
2018-07-01T20:12:56.230Z,21.40
2018-07-01T20:15:29.982Z,21.40
2018-07-01T20:18:03.845Z,21.30
2018-07-01T20:20:39.936Z,21.20
2018-07-01T20:23:15.350Z,21.20
2018-07-01T20:25:50.020Z,21.10
2018-07-01T20:28:28.419Z,21.00
2018-07-01T20:31:08.923Z,20.90
2018-07-01T20:33:44.050Z,20.80
2018-07-01T20:36:19.108Z,20.80
2018-07-01T20:38:56.883Z,20.70
2018-07-01T20:41:36.613Z,20.60
2018-07-01T20:44:13.255Z,20.60
2018-07-01T20:46:49.849Z,20.50
2018-07-01T20:49:27.030Z,20.40
2018-07-01T20:52:04.016Z,20.30
2018-07-01T20:54:39.613Z,20.30
2018-07-01T20:57:17.013Z,20.20
2018-07-01T20:59:55.626Z,20.10
2018-07-01T21:02:31.661Z,20.00
2018-07-01T21:05:07.453Z,19.80
2018-07-01T21:07:45.711Z,19.80
2018-07-01T21:10:19.892Z,19.70
2018-07-01T21:12:57.847Z,19.60
2018-07-01T21:15:35.284Z,19.60
2018-07-01T21:18:13.976Z,19.50
2018-07-01T21:20:50.721Z,19.40
2018-07-01T21:23:30.138Z,19.40
2018-07-01T21:26:05.162Z,19.30
2018-07-01T21:28:45.217Z,19.30
2018-07-01T21:31:25.056Z,19.20
2018-07-01T21:34:05.679Z,19.20
2018-07-01T21:36:44.620Z,19.10
2018-07-01T21:39:23.740Z,19.10
2018-07-01T21:42:03.147Z,19.10
2018-07-01T21:44:41.309Z,19.00
2018-07-01T21:47:29.849Z,19.00
2018-07-01T21:50:04.641Z,18.90
2018-07-01T21:52:39.432Z,18.90
2018-07-01T21:55:14.951Z,18.80
2018-07-01T21:57:50.320Z,18.80
2018-07-01T22:00:28.958Z,18.70
2018-07-01T22:03:05.332Z,18.70
2018-07-01T22:05:39.202Z,18.70
2018-07-01T22:08:13.139Z,18.60
2018-07-01T22:12:14.023Z,18.60
2018-07-01T22:17:38.382Z,18.50
2018-07-01T22:20:12.739Z,18.40
2018-07-01T22:22:46.552Z,18.40
2018-07-01T22:25:20.374Z,18.30
2018-07-01T22:27:54.196Z,18.30
2018-07-01T22:30:28.001Z,18.30
2018-07-01T22:33:01.807Z,18.30
2018-07-01T22:35:35.688Z,18.20
2018-07-01T22:38:09.586Z,18.20
2018-07-01T22:40:43.763Z,18.10
2018-07-01T22:43:17.561Z,18.10
2018-07-01T22:45:51.383Z,18.00
2018-07-01T22:48:25.241Z,18.00
2018-07-01T22:50:59.156Z,17.90
2018-07-01T22:53:33.176Z,17.80
2018-07-01T22:56:07.041Z,17.70
2018-07-01T22:58:40.920Z,17.70
2018-07-01T23:01:14.674Z,17.70
2018-07-01T23:06:21.141Z,17.50
2018-07-01T23:08:54.957Z,17.40
2018-07-01T23:11:28.738Z,17.40
2018-07-01T23:14:02.471Z,17.30
2018-07-01T23:16:36.261Z,17.20
2018-07-01T23:19:10.065Z,17.20
2018-07-01T23:21:43.861Z,17.10
2018-07-01T23:24:17.659Z,17.00
2018-07-01T23:26:51.491Z,16.90
2018-07-01T23:29:25.251Z,16.80
2018-07-01T23:31:59.083Z,16.80
2018-07-01T23:34:32.951Z,16.70
2018-07-01T23:37:06.889Z,16.60
2018-07-01T23:39:40.820Z,16.50
2018-07-01T23:42:14.789Z,16.40
2018-07-01T23:44:48.624Z,16.40
2018-07-01T23:47:22.864Z,16.30
2018-07-01T23:49:56.756Z,16.20
2018-07-01T23:52:30.542Z,16.10
2018-07-01T23:55:04.318Z,16.00
2018-07-01T23:57:38.222Z,16.00
